Ridgefield, Illinois
Current Conditions -  °F | °C
As of 6:52 AM on Thursday 27 Nov 2014 (Local Time) from KPWK Reporting Station
Overcast Overcast  
Wind Chill: 13°   Ceiling: 1300
Heat Index: 24°   Visibility: 9mi
Dew Point: 19°   Wind: 12mph
Humidity: 81%   Direction: 320°NW
Pressure: 30.29"   Gusts: NA
Location:  42.2766°N, 88.31°W
Report Text: KPWK 271252Z 32010KT 9SM OVC013 M04/M07 A3029 RMK AO2 SLP265 T10441072
Loading
Personal Weather Stations






























Interactive Weather Map New forecast layout! Learn more

10-Day Weather Forecast

Advertisements
Track Severe Weather on mobile